createdAt,value
2023-03-12T00:01:17.110Z,7.32
2023-03-12T00:03:44.859Z,12.68
2023-03-12T00:06:12.737Z,6.80
2023-03-12T00:08:42.302Z,5.80
2023-03-12T00:11:11.853Z,5.77
2023-03-12T00:13:39.964Z,5.82
2023-03-12T00:16:10.077Z,8.60
2023-03-12T00:21:06.979Z,4.88
2023-03-12T00:23:35.143Z,5.88
2023-03-12T00:26:06.785Z,6.10
2023-03-12T00:28:35.505Z,4.85
2023-03-12T00:31:03.579Z,7.03
2023-03-12T00:33:31.415Z,5.93
2023-03-12T00:36:01.913Z,5.50
2023-03-12T00:38:29.703Z,5.28
2023-03-12T00:40:57.405Z,6.47
2023-03-12T00:43:26.645Z,4.15
2023-03-12T00:45:54.391Z,5.18
2023-03-12T00:48:22.060Z,6.25
2023-03-12T00:50:49.712Z,9.10
2023-03-12T00:53:17.456Z,5.10
2023-03-12T00:55:45.288Z,5.00
2023-03-12T00:58:12.978Z,4.38
2023-03-12T01:00:42.097Z,7.47
2023-03-12T01:03:09.812Z,9.25
2023-03-12T01:05:40.518Z,7.22
2023-03-12T01:08:09.140Z,10.45
2023-03-12T01:10:37.649Z,4.28
2023-03-12T01:13:05.308Z,9.05
2023-03-12T01:15:33.217Z,5.47
2023-03-12T01:18:02.294Z,7.40
2023-03-12T01:20:30.045Z,5.03
2023-03-12T01:22:57.870Z,5.60
2023-03-12T01:25:25.615Z,5.30
2023-03-12T01:27:53.284Z,7.68
2023-03-12T01:30:20.987Z,5.57
2023-03-12T01:32:48.754Z,5.45
2023-03-12T01:35:17.862Z,4.32
2023-03-12T01:37:45.589Z,6.07
2023-03-12T01:40:15.994Z,4.28
2023-03-12T01:45:44.378Z,7.05
2023-03-12T01:48:12.079Z,6.22
2023-03-12T01:50:41.181Z,5.63
2023-03-12T01:53:08.980Z,4.13
2023-03-12T01:55:36.688Z,4.70
2023-03-12T01:58:04.557Z,5.78
2023-03-12T02:00:32.217Z,7.03
2023-03-12T02:03:03.296Z,4.10
2023-03-12T02:05:34.652Z,14.05
2023-03-12T02:08:03.673Z,7.07
2023-03-12T02:10:31.310Z,7.28
2023-03-12T02:12:59.134Z,4.97
2023-03-12T02:15:27.749Z,10.98
2023-03-12T02:17:55.576Z,6.82
2023-03-12T02:20:29.079Z,5.93
2023-03-12T02:23:04.763Z,5.05
2023-03-12T02:25:38.470Z,5.72
2023-03-12T02:28:09.547Z,7.18
2023-03-12T02:30:38.134Z,6.63
2023-03-12T02:33:08.711Z,7.45
2023-03-12T02:35:37.543Z,8.63
2023-03-12T02:38:25.575Z,8.15
2023-03-12T02:40:56.853Z,3.60
2023-03-12T02:43:24.905Z,4.20
2023-03-12T02:45:52.684Z,4.13
2023-03-12T02:48:20.426Z,8.20
2023-03-12T02:50:48.084Z,7.00
2023-03-12T02:53:15.914Z,7.97
2023-03-12T02:55:43.601Z,5.65
2023-03-12T02:58:12.727Z,6.28
2023-03-12T03:00:40.401Z,6.55
2023-03-12T03:03:08.107Z,6.13
2023-03-12T03:05:37.777Z,5.00
2023-03-12T03:08:06.376Z,8.95
2023-03-12T03:10:34.095Z,7.80
2023-03-12T03:13:01.764Z,4.63
2023-03-12T03:15:30.808Z,10.95
2023-03-12T03:17:59.244Z,8.50
2023-03-12T03:20:26.996Z,4.43
2023-03-12T03:22:54.682Z,5.03
2023-03-12T03:25:23.564Z,10.25
2023-03-12T03:27:51.296Z,4.63
2023-03-12T03:30:19.348Z,7.15
2023-03-12T03:32:48.760Z,5.80
2023-03-12T03:35:16.737Z,5.57
2023-03-12T03:37:44.488Z,6.85
2023-03-12T03:40:13.461Z,5.68
2023-03-12T03:42:41.402Z,6.47
2023-03-12T03:45:10.200Z,5.70
2023-03-12T03:47:37.986Z,6.65
2023-03-12T03:50:08.461Z,8.13
2023-03-12T03:55:03.669Z,6.75
2023-03-12T03:57:31.343Z,5.50
2023-03-12T04:00:03.392Z,8.50
2023-03-12T04:02:31.361Z,10.32
2023-03-12T04:04:59.400Z,5.68
2023-03-12T04:07:29.119Z,7.38
2023-03-12T04:09:57.582Z,8.52
2023-03-12T04:12:26.113Z,6.22
2023-03-12T04:14:53.908Z,3.70
2023-03-12T04:17:21.619Z,9.40
2023-03-12T04:19:49.300Z,6.60
2023-03-12T04:22:16.994Z,5.60
2023-03-12T04:24:46.520Z,8.80
2023-03-12T04:27:14.209Z,9.07
2023-03-12T04:29:42.065Z,6.65
2023-03-12T04:32:09.783Z,6.53
2023-03-12T04:34:37.486Z,9.88
2023-03-12T04:37:05.120Z,10.80
2023-03-12T04:39:32.829Z,6.47
2023-03-12T04:42:01.811Z,7.93
2023-03-12T04:44:29.605Z,11.45
2023-03-12T04:46:57.323Z,7.78
2023-03-12T04:49:25.011Z,9.32
2023-03-12T04:51:52.649Z,7.57
2023-03-12T04:54:21.349Z,5.30
2023-03-12T04:56:49.217Z,10.30
2023-03-12T04:59:18.424Z,9.13
2023-03-12T05:01:46.093Z,10.80
2023-03-12T05:04:13.821Z,6.32
2023-03-12T05:06:41.516Z,5.95
2023-03-12T05:09:09.281Z,12.23
2023-03-12T05:11:39.611Z,8.65
2023-03-12T05:14:07.527Z,8.48
2023-03-12T05:16:36.621Z,8.20
2023-03-12T05:19:04.910Z,10.07
2023-03-12T05:21:32.604Z,9.52
2023-03-12T05:24:00.560Z,8.05
2023-03-12T05:26:31.414Z,8.20
2023-03-12T05:28:59.562Z,9.98
2023-03-12T05:31:27.657Z,11.80
2023-03-12T05:33:56.715Z,8.70
2023-03-12T05:36:24.402Z,8.27
2023-03-12T05:38:52.447Z,9.55
2023-03-12T05:41:23.018Z,12.35
2023-03-12T05:43:50.712Z,10.63
2023-03-12T05:46:18.391Z,10.73
2023-03-12T05:48:46.100Z,8.38
2023-03-12T05:51:15.551Z,8.20
2023-03-12T05:53:43.260Z,8.70
2023-03-12T05:56:13.926Z,9.43
2023-03-12T05:58:42.170Z,9.40
2023-03-12T06:01:13.406Z,9.32
2023-03-12T06:03:42.818Z,8.98
2023-03-12T06:06:10.576Z,8.67
2023-03-12T06:08:39.967Z,6.68
2023-03-12T06:11:07.718Z,9.65
2023-03-12T06:13:35.504Z,10.48
2023-03-12T06:16:05.379Z,9.82
2023-03-12T06:18:33.183Z,12.82
2023-03-12T06:21:12.472Z,7.93
2023-03-12T06:23:41.939Z,9.35
2023-03-12T06:26:10.366Z,9.60
2023-03-12T06:28:38.645Z,11.52
2023-03-12T06:31:06.972Z,10.40
2023-03-12T06:33:35.230Z,9.32
2023-03-12T06:36:05.019Z,9.18
2023-03-12T06:38:33.086Z,7.75
2023-03-12T06:41:04.513Z,8.65
2023-03-12T06:43:33.932Z,11.35
2023-03-12T06:46:02.192Z,14.38
2023-03-12T06:48:31.016Z,8.30
2023-03-12T06:50:58.776Z,9.85
2023-03-12T06:53:27.195Z,11.27
2023-03-12T06:55:54.900Z,5.18
2023-03-12T06:58:23.969Z,9.88
2023-03-12T07:00:51.996Z,8.25
2023-03-12T07:03:19.682Z,11.48
2023-03-12T07:05:48.957Z,8.50
2023-03-12T07:08:18.482Z,9.00
2023-03-12T07:10:46.644Z,8.17
2023-03-12T07:13:14.330Z,8.38
2023-03-12T07:15:44.992Z,11.90
2023-03-12T07:18:13.151Z,10.68
2023-03-12T07:20:42.421Z,9.43
2023-03-12T07:23:10.562Z,11.98
2023-03-12T07:25:38.598Z,14.48
2023-03-12T07:28:07.135Z,7.93
2023-03-12T07:30:35.184Z,8.30
2023-03-12T07:33:04.884Z,9.55
2023-03-12T07:35:33.513Z,9.07
2023-03-12T07:38:02.135Z,8.52
2023-03-12T07:40:30.230Z,8.43
2023-03-12T07:42:58.475Z,8.02
2023-03-12T07:45:26.404Z,7.65
2023-03-12T07:47:54.185Z,6.25
2023-03-12T07:50:23.272Z,7.45
2023-03-12T07:52:51.539Z,9.35
2023-03-12T07:55:19.554Z,6.70
2023-03-12T07:57:47.357Z,9.57
2023-03-12T08:00:17.101Z,6.85
2023-03-12T08:02:45.703Z,9.27
2023-03-12T08:05:13.578Z,9.90
2023-03-12T08:07:42.614Z,6.38
2023-03-12T08:10:11.924Z,5.72
2023-03-12T08:12:39.668Z,9.63
2023-03-12T08:15:09.509Z,8.20
2023-03-12T08:17:37.220Z,7.78
2023-03-12T08:20:05.815Z,9.82
2023-03-12T08:22:33.552Z,6.78
2023-03-12T08:25:02.625Z,5.10
2023-03-12T08:27:30.368Z,9.25
2023-03-12T08:29:58.059Z,5.18
2023-03-12T08:32:26.112Z,5.72
2023-03-12T08:34:53.939Z,5.20
2023-03-12T08:37:22.552Z,6.85
2023-03-12T08:39:50.192Z,7.38
2023-03-12T08:42:19.274Z,4.70
2023-03-12T08:44:46.908Z,9.20
2023-03-12T08:47:14.666Z,5.15
2023-03-12T08:49:42.297Z,5.38
2023-03-12T08:52:10.027Z,7.88
2023-03-12T08:54:37.847Z,9.38
2023-03-12T08:57:05.458Z,4.10
2023-03-12T08:59:34.501Z,5.85
2023-03-12T09:02:02.348Z,6.95
2023-03-12T09:04:30.078Z,4.70
2023-03-12T09:06:57.784Z,4.43
2023-03-12T09:09:25.368Z,6.93
2023-03-12T09:11:53.047Z,4.97
2023-03-12T09:17:09.671Z,6.28
2023-03-12T09:19:37.364Z,8.82
2023-03-12T09:22:05.050Z,5.78
2023-03-12T09:24:32.899Z,3.95
2023-03-12T09:27:00.786Z,4.68
2023-03-12T09:29:28.384Z,5.55
2023-03-12T09:32:00.287Z,6.80
2023-03-12T09:34:29.335Z,5.55
2023-03-12T09:36:57.207Z,7.45
2023-03-12T09:39:24.846Z,4.38
2023-03-12T09:41:52.788Z,6.78
2023-03-12T09:44:28.321Z,4.10
2023-03-12T09:47:00.947Z,3.63
2023-03-12T09:49:35.610Z,8.32
2023-03-12T09:52:09.453Z,6.30
2023-03-12T09:54:44.747Z,4.63
2023-03-12T09:57:20.596Z,4.68
2023-03-12T09:59:48.281Z,5.88
2023-03-12T10:02:43.009Z,3.25
2023-03-12T10:05:18.491Z,3.92
2023-03-12T10:07:53.215Z,7.15
2023-03-12T10:10:29.314Z,5.05
2023-03-12T10:13:12.821Z,3.15
2023-03-12T10:15:53.068Z,4.20
2023-03-12T10:18:34.485Z,5.80
2023-03-12T10:21:17.704Z,8.75
2023-03-12T10:24:01.482Z,6.07
2023-03-12T10:26:33.095Z,2.30
2023-03-12T10:29:05.391Z,1.77
2023-03-12T10:31:37.126Z,3.53
2023-03-12T10:34:14.603Z,2.80
2023-03-12T10:36:45.472Z,6.38
2023-03-12T10:39:16.724Z,5.75
2023-03-12T10:41:45.855Z,7.18
2023-03-12T10:44:19.536Z,5.38
2023-03-12T10:46:55.101Z,6.38
2023-03-12T10:49:29.202Z,4.65
2023-03-12T10:52:01.398Z,4.35
2023-03-12T10:54:32.378Z,10.80
2023-03-12T10:57:00.438Z,5.95
2023-03-12T10:59:31.390Z,4.47
2023-03-12T11:01:59.345Z,4.68
2023-03-12T11:04:30.366Z,3.72
2023-03-12T11:07:27.775Z,4.50
2023-03-12T11:10:15.208Z,4.88
2023-03-12T11:12:53.698Z,4.97
2023-03-12T11:15:24.451Z,7.10
2023-03-12T11:17:52.629Z,5.03
2023-03-12T11:20:28.003Z,6.93
2023-03-12T11:22:57.213Z,5.05
2023-03-12T11:25:27.896Z,3.35
2023-03-12T11:27:57.822Z,5.68
2023-03-12T11:30:34.867Z,4.47
2023-03-12T11:33:04.063Z,3.20
2023-03-12T11:35:46.398Z,3.60
2023-03-12T11:38:18.925Z,3.75
2023-03-12T11:41:04.484Z,5.05
2023-03-12T11:43:46.233Z,7.82
2023-03-12T11:46:28.142Z,4.32
2023-03-12T11:49:07.678Z,3.80
2023-03-12T11:51:47.434Z,8.25
2023-03-12T11:54:42.539Z,7.53
2023-03-12T11:57:16.948Z,4.72
2023-03-12T12:00:07.036Z,8.70
2023-03-12T12:02:57.843Z,4.85
2023-03-12T12:05:37.108Z,5.28
2023-03-12T12:08:24.246Z,5.05
2023-03-12T12:11:04.705Z,7.50
2023-03-12T12:13:42.860Z,4.38
2023-03-12T12:16:24.995Z,6.30
2023-03-12T12:19:05.563Z,4.97
2023-03-12T12:24:22.514Z,9.27
2023-03-12T12:27:02.120Z,7.10
2023-03-12T12:29:52.076Z,6.13
2023-03-12T12:32:28.646Z,10.00
2023-03-12T12:35:16.183Z,5.20
2023-03-12T12:37:50.764Z,5.30
2023-03-12T12:40:24.295Z,3.92
2023-03-12T12:43:04.796Z,5.22
2023-03-12T12:45:32.488Z,6.28
2023-03-12T12:48:05.091Z,4.95
2023-03-12T12:50:37.184Z,4.28
2023-03-12T12:53:22.352Z,6.40
2023-03-12T12:56:01.158Z,5.68
2023-03-12T12:58:45.580Z,6.65
2023-03-12T13:01:15.954Z,5.88
2023-03-12T13:03:45.534Z,3.80
2023-03-12T13:06:13.243Z,4.25
2023-03-12T13:09:02.239Z,3.60
2023-03-12T13:11:39.314Z,3.05
2023-03-12T13:14:20.237Z,4.10
2023-03-12T13:16:49.077Z,4.65
2023-03-12T13:19:27.189Z,5.43
2023-03-12T13:22:11.848Z,5.18
2023-03-12T13:24:46.322Z,4.22
2023-03-12T13:27:19.937Z,5.50
2023-03-12T13:29:55.205Z,4.68
2023-03-12T13:33:01.538Z,3.58
2023-03-12T13:35:37.311Z,3.45
2023-03-12T13:38:08.374Z,4.95
2023-03-12T13:40:55.842Z,3.50
2023-03-12T13:43:48.721Z,2.92
2023-03-12T13:46:30.818Z,7.25
2023-03-12T13:49:04.586Z,3.40
2023-03-12T13:51:32.423Z,3.67
2023-03-12T13:54:02.709Z,5.47
2023-03-12T13:56:33.204Z,3.42
2023-03-12T14:01:36.522Z,4.43
2023-03-12T14:04:08.987Z,4.72
2023-03-12T14:06:51.119Z,3.45
2023-03-12T14:09:25.535Z,5.13
2023-03-12T14:12:00.438Z,3.72
2023-03-12T14:14:48.007Z,3.92
2023-03-12T14:17:20.207Z,2.38
2023-03-12T14:19:51.786Z,4.10
2023-03-12T14:22:22.648Z,4.20
2023-03-12T14:24:54.345Z,2.90
2023-03-12T14:27:27.166Z,2.00
2023-03-12T14:29:59.133Z,9.20
2023-03-12T14:32:32.225Z,4.50
2023-03-12T14:35:18.809Z,5.55
2023-03-12T14:37:53.871Z,5.57
2023-03-12T14:40:25.387Z,2.47
2023-03-12T14:42:53.218Z,7.80
2023-03-12T14:45:23.809Z,2.78
2023-03-12T14:47:56.801Z,3.67
2023-03-12T14:50:27.643Z,3.13
2023-03-12T14:52:56.925Z,2.45
2023-03-12T14:55:26.761Z,2.67
2023-03-12T14:58:04.917Z,3.00
2023-03-12T15:00:33.035Z,4.65
2023-03-12T15:03:11.901Z,6.45
2023-03-12T15:05:39.922Z,2.85
2023-03-12T15:08:08.832Z,3.97
2023-03-12T15:10:37.758Z,2.90
2023-03-12T15:13:05.783Z,3.97
2023-03-12T15:15:41.374Z,6.55
2023-03-12T15:18:14.904Z,2.65
2023-03-12T15:20:42.930Z,3.88
2023-03-12T15:23:13.050Z,2.88
2023-03-12T15:25:41.463Z,3.22
2023-03-12T15:28:25.618Z,2.45
2023-03-12T15:31:07.731Z,4.35
2023-03-12T15:33:37.343Z,3.58
2023-03-12T15:36:16.958Z,3.33
2023-03-12T15:38:48.342Z,5.85
2023-03-12T15:41:19.624Z,2.67
2023-03-12T15:43:53.016Z,3.88
2023-03-12T15:46:20.932Z,2.67
2023-03-12T15:48:52.296Z,4.88
2023-03-12T15:51:35.720Z,5.18
2023-03-12T15:54:07.226Z,2.65
2023-03-12T15:56:36.291Z,4.10
2023-03-12T15:59:19.413Z,3.75
2023-03-12T16:01:47.922Z,3.92
2023-03-12T16:04:17.023Z,5.65
2023-03-12T16:06:48.163Z,6.50
2023-03-12T16:09:19.781Z,4.10
2023-03-12T16:11:48.690Z,7.80
2023-03-12T16:14:20.278Z,4.22
2023-03-12T16:16:48.508Z,9.40
2023-03-12T16:19:19.408Z,6.13
2023-03-12T16:21:47.535Z,5.50
2023-03-12T16:24:16.416Z,4.97
2023-03-12T16:26:49.366Z,8.93
2023-03-12T16:29:19.106Z,4.55
2023-03-12T16:31:50.311Z,7.55
2023-03-12T16:34:19.362Z,9.02
2023-03-12T16:36:46.925Z,8.02
2023-03-12T16:39:14.626Z,6.05
2023-03-12T16:41:43.072Z,5.75
2023-03-12T16:44:16.719Z,8.35
2023-03-12T16:46:46.149Z,4.97
2023-03-12T16:49:15.784Z,4.93
2023-03-12T16:51:45.088Z,8.77
2023-03-12T16:54:12.868Z,12.63
2023-03-12T16:56:43.927Z,7.50
2023-03-12T16:59:19.076Z,7.50
2023-03-12T17:01:46.765Z,5.55
2023-03-12T17:04:14.515Z,7.13
2023-03-12T17:06:42.301Z,9.52
2023-03-12T17:09:11.310Z,8.65
2023-03-12T17:11:39.557Z,11.77
2023-03-12T17:14:18.180Z,8.93
2023-03-12T17:16:46.276Z,7.22
2023-03-12T17:19:14.060Z,9.60
2023-03-12T17:21:41.951Z,7.82
2023-03-12T17:24:11.475Z,10.70
2023-03-12T17:26:39.162Z,7.22
2023-03-12T17:29:06.871Z,8.88
2023-03-12T17:31:36.034Z,7.45
2023-03-12T17:34:04.009Z,11.43
2023-03-12T17:36:31.725Z,9.18
2023-03-12T17:38:59.381Z,8.57
2023-03-12T17:41:28.370Z,7.00
2023-03-12T17:43:58.684Z,14.85
2023-03-12T17:46:26.344Z,6.95
2023-03-12T17:48:54.231Z,9.20
2023-03-12T17:51:22.298Z,9.00
2023-03-12T17:53:50.015Z,10.68
2023-03-12T17:56:19.115Z,9.02
2023-03-12T17:58:48.496Z,5.72
2023-03-12T18:01:17.554Z,9.32
2023-03-12T18:03:45.377Z,8.68
2023-03-12T18:06:13.407Z,5.93
2023-03-12T18:08:41.081Z,6.00
2023-03-12T18:11:08.744Z,6.80
2023-03-12T18:13:36.346Z,6.93
2023-03-12T18:16:05.916Z,9.27
2023-03-12T18:18:33.745Z,7.57
2023-03-12T18:21:01.395Z,10.48
2023-03-12T18:23:29.041Z,7.70
2023-03-12T18:25:56.729Z,10.60
2023-03-12T18:28:24.350Z,6.85
2023-03-12T18:30:54.364Z,7.53
2023-03-12T18:33:23.358Z,7.63
2023-03-12T18:35:53.868Z,7.57
2023-03-12T18:38:21.989Z,8.20
2023-03-12T18:40:51.269Z,8.90
2023-03-12T18:43:20.793Z,9.65
2023-03-12T18:48:18.336Z,6.53
2023-03-12T18:50:47.298Z,10.45
2023-03-12T18:53:14.964Z,8.80
2023-03-12T18:55:42.911Z,10.05
2023-03-12T18:58:10.618Z,11.82
2023-03-12T19:00:38.336Z,14.35
2023-03-12T19:03:06.093Z,8.48
2023-03-12T19:05:33.846Z,11.05
2023-03-12T19:08:02.842Z,13.05
2023-03-12T19:10:30.628Z,8.13
2023-03-12T19:12:59.076Z,9.90
2023-03-12T19:15:26.898Z,8.95
2023-03-12T19:17:54.852Z,9.88
2023-03-12T19:20:22.873Z,12.18
2023-03-12T19:22:50.772Z,10.23
2023-03-12T19:25:20.022Z,11.18
2023-03-12T19:27:47.707Z,12.32
2023-03-12T19:30:15.991Z,12.95
2023-03-12T19:32:44.731Z,11.55
2023-03-12T19:35:14.703Z,12.68
2023-03-12T19:37:43.115Z,9.57
2023-03-12T19:40:13.197Z,12.27
2023-03-12T19:42:42.356Z,14.02
2023-03-12T19:45:11.180Z,26.88
2023-03-12T19:47:38.850Z,11.25
2023-03-12T19:50:07.558Z,13.07
2023-03-12T19:52:35.239Z,10.95
2023-03-12T19:55:05.455Z,10.52
2023-03-12T20:00:07.191Z,9.82
2023-03-12T20:02:36.586Z,26.17
2023-03-12T20:05:04.396Z,12.82
2023-03-12T20:07:32.086Z,11.95
2023-03-12T20:09:59.806Z,11.35
2023-03-12T20:12:27.668Z,13.80
2023-03-12T20:14:55.345Z,13.90
2023-03-12T20:17:24.341Z,11.45
2023-03-12T20:19:52.014Z,10.25
2023-03-12T20:22:19.836Z,15.88
2023-03-12T20:24:47.835Z,11.05
2023-03-12T20:27:16.106Z,13.35
2023-03-12T20:29:46.055Z,17.15
2023-03-12T20:32:13.755Z,17.55
2023-03-12T20:34:42.949Z,19.13
2023-03-12T20:37:10.633Z,18.02
2023-03-12T20:39:38.484Z,17.45
2023-03-12T20:42:06.334Z,18.48
2023-03-12T20:44:33.992Z,27.77
2023-03-12T20:47:01.815Z,45.38
2023-03-12T20:49:29.493Z,16.02
2023-03-12T20:51:58.563Z,12.05
2023-03-12T20:54:27.286Z,14.68
2023-03-12T20:56:54.948Z,15.93
2023-03-12T20:59:22.673Z,14.70
2023-03-12T21:01:50.350Z,14.75
2023-03-12T21:04:18.099Z,16.27
2023-03-12T21:06:47.512Z,17.10
2023-03-12T21:09:16.511Z,16.58
2023-03-12T21:11:44.159Z,18.30
2023-03-12T21:14:11.927Z,13.55
2023-03-12T21:16:39.621Z,13.82
2023-03-12T21:19:07.406Z,14.52
2023-03-12T21:21:36.355Z,14.32
2023-03-12T21:24:04.303Z,13.18
2023-03-12T21:26:33.378Z,15.98
2023-03-12T21:29:01.009Z,17.58
2023-03-12T21:31:28.703Z,16.08
2023-03-12T21:33:56.889Z,18.05
2023-03-12T21:36:26.040Z,17.27
2023-03-12T21:38:53.699Z,15.15
2023-03-12T21:41:22.183Z,15.48
2023-03-12T21:43:51.186Z,18.17
2023-03-12T21:46:24.405Z,15.90
2023-03-12T21:48:52.237Z,17.33
2023-03-12T21:51:22.067Z,15.95
2023-03-12T21:53:54.489Z,17.10
2023-03-12T21:56:22.219Z,13.98
2023-03-12T21:58:51.242Z,22.90
2023-03-12T22:01:19.848Z,19.25
2023-03-12T22:03:47.782Z,16.40
2023-03-12T22:06:16.602Z,18.95
2023-03-12T22:08:45.209Z,13.93
2023-03-12T22:11:12.870Z,14.60
2023-03-12T22:13:40.539Z,18.13
2023-03-12T22:16:10.206Z,16.58
2023-03-12T22:18:39.538Z,16.87
2023-03-12T22:21:08.394Z,18.20
2023-03-12T22:23:37.121Z,15.48
2023-03-12T22:26:06.545Z,16.20
2023-03-12T22:28:34.749Z,18.83
2023-03-12T22:31:04.642Z,18.60
2023-03-12T22:33:35.610Z,16.45
2023-03-12T22:36:07.487Z,16.08
2023-03-12T22:38:36.566Z,18.08
2023-03-12T22:41:13.360Z,15.02
2023-03-12T22:43:41.124Z,16.80
2023-03-12T22:46:08.864Z,17.85
2023-03-12T22:48:38.143Z,18.50
2023-03-12T22:51:06.718Z,18.80
2023-03-12T22:53:35.097Z,15.30
2023-03-12T22:56:04.927Z,13.95
2023-03-12T22:58:32.859Z,17.20
2023-03-12T23:01:01.984Z,23.20
2023-03-12T23:03:31.145Z,15.13
2023-03-12T23:06:00.925Z,15.85
2023-03-12T23:08:29.051Z,16.83
2023-03-12T23:10:58.655Z,16.88
2023-03-12T23:13:27.715Z,14.20
2023-03-12T23:15:55.701Z,18.02
2023-03-12T23:18:23.407Z,17.77
2023-03-12T23:21:00.568Z,16.88
2023-03-12T23:23:29.015Z,16.23
2023-03-12T23:25:58.418Z,18.02
2023-03-12T23:28:27.238Z,13.98
2023-03-12T23:30:56.432Z,20.48
2023-03-12T23:33:24.235Z,16.88
2023-03-12T23:35:56.329Z,16.90
2023-03-12T23:38:26.248Z,17.90
2023-03-12T23:40:54.044Z,13.80
2023-03-12T23:43:21.680Z,20.75
2023-03-12T23:45:56.675Z,18.08
2023-03-12T23:48:24.483Z,17.92
2023-03-12T23:50:52.122Z,16.65
2023-03-12T23:53:19.971Z,17.08
2023-03-12T23:55:57.612Z,13.98
2023-03-12T23:58:25.966Z,17.13
